createdAt,value
2022-11-01T00:00:16.388Z,14.14
2022-11-01T00:03:18.166Z,14.12
2022-11-01T00:06:19.974Z,14.49
2022-11-01T00:09:21.781Z,13.83
2022-11-01T00:12:23.576Z,14.15
2022-11-01T00:15:25.380Z,14.34
2022-11-01T00:18:27.233Z,14.48
2022-11-01T00:21:29.031Z,14.61
2022-11-01T00:24:33.779Z,14.23
2022-11-01T00:27:35.630Z,14.32
2022-11-01T00:30:38.037Z,14.47
2022-11-01T00:33:39.891Z,13.88
2022-11-01T00:36:41.683Z,12.82
2022-11-01T00:39:43.465Z,14.16
2022-11-01T00:42:45.268Z,14.27
2022-11-01T00:45:47.074Z,14.26
2022-11-01T00:48:49.572Z,13.84
2022-11-01T00:51:52.221Z,14.05
2022-11-01T00:54:54.083Z,14.06
2022-11-01T00:57:55.886Z,13.60
2022-11-01T01:00:57.791Z,14.22
2022-11-01T01:03:59.655Z,14.25
2022-11-01T01:07:01.463Z,13.93
2022-11-01T01:10:03.950Z,13.55
2022-11-01T01:13:05.937Z,14.47
2022-11-01T01:16:08.949Z,14.18
2022-11-01T01:19:10.758Z,14.09
2022-11-01T01:22:12.559Z,14.18
2022-11-01T01:25:14.364Z,13.66
2022-11-01T01:28:16.193Z,14.08
2022-11-01T01:31:18.021Z,13.61
2022-11-01T01:34:19.808Z,14.19
2022-11-01T01:37:21.612Z,14.13
2022-11-01T01:40:23.383Z,12.95
2022-11-01T01:43:29.236Z,14.16
2022-11-01T01:46:31.008Z,14.45
2022-11-01T01:49:32.853Z,13.52
2022-11-01T01:52:44.972Z,14.20
2022-11-01T01:56:03.545Z,14.35
2022-11-01T01:59:06.094Z,12.87
2022-11-01T02:02:08.183Z,13.78
2022-11-01T02:05:16.280Z,13.80
2022-11-01T02:08:26.612Z,13.75
2022-11-01T02:11:28.477Z,13.48
2022-11-01T02:14:30.267Z,13.63
2022-11-01T02:17:43.888Z,14.29
2022-11-01T02:21:04.449Z,14.41
2022-11-01T02:24:15.538Z,13.87
2022-11-01T02:27:17.261Z,14.22
2022-11-01T02:30:19.488Z,13.99
2022-11-01T02:33:28.611Z,13.96
2022-11-01T02:36:36.358Z,14.42
2022-11-01T02:39:39.736Z,14.30
2022-11-01T02:42:45.059Z,14.22
2022-11-01T02:45:48.085Z,14.09
2022-11-01T02:48:49.872Z,14.12
2022-11-01T02:51:51.644Z,14.12
2022-11-01T02:54:57.489Z,14.02
2022-11-01T02:58:25.706Z,14.11
2022-11-01T03:01:28.254Z,14.17
2022-11-01T03:04:30.140Z,14.25
2022-11-01T03:07:31.939Z,14.00
2022-11-01T03:10:53.983Z,14.24
2022-11-01T03:14:13.797Z,14.06
2022-11-01T03:17:15.506Z,14.21
2022-11-01T03:20:49.747Z,13.89
2022-11-01T03:24:02.050Z,13.99
2022-11-01T03:27:06.781Z,13.64
2022-11-01T03:30:09.705Z,13.62
2022-11-01T03:33:12.675Z,13.61
2022-11-01T03:36:15.150Z,13.37
2022-11-01T03:39:20.901Z,13.90
2022-11-01T03:42:22.723Z,13.92
2022-11-01T03:45:25.025Z,13.67
2022-11-01T03:48:26.852Z,14.17
2022-11-01T03:51:28.816Z,14.12
2022-11-01T03:54:30.617Z,13.92
2022-11-01T03:57:32.423Z,13.87
2022-11-01T04:00:37.078Z,13.53
2022-11-01T04:03:39.026Z,13.79
2022-11-01T04:06:40.805Z,13.90
2022-11-01T04:09:42.587Z,14.02
2022-11-01T04:12:44.996Z,13.83
2022-11-01T04:16:05.454Z,13.61
2022-11-01T04:19:26.205Z,13.83
2022-11-01T04:22:28.013Z,13.40
2022-11-01T04:25:30.030Z,13.75
2022-11-01T04:28:31.845Z,13.68
2022-11-01T04:31:34.938Z,13.20
2022-11-01T04:34:42.551Z,13.27
2022-11-01T04:37:44.350Z,13.61
2022-11-01T04:40:46.181Z,13.70
2022-11-01T04:43:47.952Z,13.94
2022-11-01T04:46:49.767Z,13.78
2022-11-01T04:49:51.576Z,13.72
2022-11-01T04:52:53.398Z,13.72
2022-11-01T04:55:55.473Z,13.61
2022-11-01T04:58:57.291Z,13.58
2022-11-01T05:01:59.156Z,13.71
2022-11-01T05:05:01.092Z,13.62
2022-11-01T05:08:03.818Z,13.61
2022-11-01T05:11:05.752Z,13.84
2022-11-01T05:14:08.295Z,13.65
2022-11-01T05:17:10.112Z,13.52
2022-11-01T05:20:11.999Z,13.65
2022-11-01T05:23:13.911Z,13.10
2022-11-01T05:26:15.729Z,13.34
2022-11-01T05:29:24.798Z,13.31
2022-11-01T05:32:35.635Z,13.56
2022-11-01T05:35:37.481Z,13.48
2022-11-01T05:38:39.331Z,13.44
2022-11-01T05:41:41.236Z,13.52
2022-11-01T05:44:43.019Z,13.53
2022-11-01T05:47:44.863Z,13.55
2022-11-01T05:50:47.093Z,13.29
2022-11-01T05:53:49.616Z,13.00
2022-11-01T05:56:51.402Z,13.37
2022-11-01T05:59:53.200Z,13.26
2022-11-01T06:02:57.004Z,13.62
2022-11-01T06:05:58.845Z,12.60
2022-11-01T06:09:00.668Z,13.35
2022-11-01T06:12:02.470Z,13.72
2022-11-01T06:15:04.421Z,13.47
2022-11-01T06:18:06.474Z,13.58
2022-11-01T06:21:08.409Z,13.50
2022-11-01T06:24:10.618Z,13.23
2022-11-01T06:27:12.886Z,13.39
2022-11-01T06:30:14.857Z,13.36
2022-11-01T06:33:16.706Z,13.13
2022-11-01T06:36:18.542Z,13.38
2022-11-01T06:39:20.364Z,12.87
2022-11-01T06:42:22.177Z,12.92
2022-11-01T06:45:23.974Z,13.63
2022-11-01T06:48:25.762Z,13.43
2022-11-01T06:51:27.859Z,13.50
2022-11-01T06:54:29.686Z,13.30
2022-11-01T06:57:31.459Z,13.44
2022-11-01T07:00:33.263Z,13.12
2022-11-01T07:03:35.054Z,13.28
2022-11-01T07:06:36.858Z,13.48
2022-11-01T07:09:38.633Z,13.84
2022-11-01T07:12:40.465Z,13.55
2022-11-01T07:15:42.291Z,13.62
2022-11-01T07:18:44.849Z,13.59
2022-11-01T07:21:46.632Z,13.39
2022-11-01T07:24:48.440Z,13.69
2022-11-01T07:27:50.254Z,13.66
2022-11-01T07:30:52.603Z,13.64
2022-11-01T07:33:54.409Z,13.86
2022-11-01T07:36:56.195Z,13.15
2022-11-01T07:39:58.021Z,13.58
2022-11-01T07:43:00.286Z,13.78
2022-11-01T07:46:04.261Z,13.64
2022-11-01T07:49:06.033Z,13.50
2022-11-01T07:52:07.913Z,13.55
2022-11-01T07:55:09.748Z,13.48
2022-11-01T07:58:11.746Z,13.21
2022-11-01T08:01:13.646Z,13.56
2022-11-01T08:04:15.500Z,13.65
2022-11-01T08:07:17.946Z,13.47
2022-11-01T08:10:19.751Z,13.76
2022-11-01T08:13:25.006Z,13.81
2022-11-01T08:16:26.817Z,13.82
2022-11-01T08:19:28.601Z,13.87
2022-11-01T08:22:30.397Z,13.75
2022-11-01T08:25:32.324Z,14.02
2022-11-01T08:28:34.140Z,14.07
2022-11-01T08:31:39.909Z,14.07
2022-11-01T08:34:41.704Z,14.02
2022-11-01T08:37:52.800Z,13.51
2022-11-01T08:40:54.899Z,13.83
2022-11-01T08:43:59.651Z,13.28
2022-11-01T08:47:01.732Z,13.19
2022-11-01T08:50:05.003Z,13.43
2022-11-01T08:53:11.852Z,12.59
2022-11-01T08:56:13.661Z,13.70
2022-11-01T08:59:15.454Z,12.95
2022-11-01T09:02:17.542Z,13.68
2022-11-01T09:05:19.809Z,14.09
2022-11-01T09:08:21.647Z,13.28
2022-11-01T09:11:23.980Z,13.37
2022-11-01T09:14:26.311Z,13.33
2022-11-01T09:17:28.147Z,13.48
2022-11-01T09:20:29.917Z,13.04
2022-11-01T09:23:31.710Z,12.54
2022-11-01T09:26:33.533Z,13.37
2022-11-01T09:29:35.592Z,14.06
2022-11-01T09:32:37.472Z,14.26
2022-11-01T09:35:39.289Z,14.21
2022-11-01T09:38:41.127Z,14.08
2022-11-01T09:41:47.216Z,13.04
2022-11-01T09:44:49.702Z,14.08
2022-11-01T09:47:52.488Z,14.04
2022-11-01T09:50:54.284Z,13.60
2022-11-01T09:53:56.874Z,14.35
2022-11-01T09:57:14.174Z,13.81
2022-11-01T10:00:16.441Z,14.30
2022-11-01T10:03:36.999Z,14.74
2022-11-01T10:06:46.511Z,14.38
2022-11-01T10:09:56.432Z,14.18
2022-11-01T10:13:11.058Z,14.35
2022-11-01T10:16:31.836Z,14.28
2022-11-01T10:19:35.411Z,14.72
2022-11-01T10:22:37.204Z,14.75
2022-11-01T10:25:39.050Z,14.35
2022-11-01T10:28:43.852Z,14.42
2022-11-01T10:31:45.999Z,14.94
2022-11-01T10:34:47.867Z,14.50
2022-11-01T10:38:11.165Z,13.53
2022-11-01T10:41:19.001Z,14.35
2022-11-01T10:44:31.025Z,13.63
2022-11-01T10:47:32.846Z,13.82
2022-11-01T10:50:34.628Z,14.82
2022-11-01T10:53:44.527Z,14.88
2022-11-01T10:56:47.232Z,13.90
2022-11-01T10:59:49.015Z,14.54
2022-11-01T11:02:52.084Z,14.74
2022-11-01T11:05:54.060Z,15.15
2022-11-01T11:08:55.896Z,14.73
2022-11-01T11:11:58.904Z,14.40
2022-11-01T11:15:04.761Z,15.04
2022-11-01T11:18:09.154Z,14.69
2022-11-01T11:21:11.828Z,14.91
2022-11-01T11:24:21.055Z,14.89
2022-11-01T11:27:23.665Z,14.94
2022-11-01T11:30:30.016Z,15.34
2022-11-01T11:33:31.901Z,14.80
2022-11-01T11:36:34.762Z,13.90
2022-11-01T11:39:37.087Z,14.48
2022-11-01T11:42:38.923Z,14.79
2022-11-01T11:45:40.733Z,14.86
2022-11-01T11:48:49.914Z,14.46
2022-11-01T11:51:51.767Z,13.88
2022-11-01T11:54:53.579Z,13.99
2022-11-01T11:57:55.401Z,14.54
2022-11-01T12:01:01.625Z,15.03
2022-11-01T12:04:07.679Z,14.42
2022-11-01T12:07:23.030Z,14.75
2022-11-01T12:10:27.803Z,14.29
2022-11-01T12:13:33.892Z,14.72
2022-11-01T12:16:44.442Z,15.13
2022-11-01T12:19:46.284Z,15.43
2022-11-01T12:22:56.561Z,14.50
2022-11-01T12:25:59.072Z,14.92
2022-11-01T12:29:04.017Z,13.87
2022-11-01T12:32:16.626Z,14.68
2022-11-01T12:35:26.345Z,14.47
2022-11-01T12:38:43.547Z,14.56
2022-11-01T12:41:47.716Z,14.48
2022-11-01T12:44:51.454Z,14.51
2022-11-01T12:47:54.817Z,14.90
2022-11-01T12:50:59.758Z,15.49
2022-11-01T12:54:06.117Z,14.63
2022-11-01T12:57:18.333Z,14.51
2022-11-01T13:00:21.318Z,14.54
2022-11-01T13:03:29.399Z,14.57
2022-11-01T13:06:47.020Z,15.65
2022-11-01T13:09:55.243Z,15.80
2022-11-01T13:13:03.516Z,16.09
2022-11-01T13:16:11.417Z,16.04
2022-11-01T13:19:23.408Z,14.44
2022-11-01T13:22:32.768Z,14.90
2022-11-01T13:25:34.526Z,15.39
2022-11-01T13:28:42.357Z,14.81
2022-11-01T13:31:44.485Z,15.53
2022-11-01T13:34:49.845Z,15.50
2022-11-01T13:38:11.872Z,15.34
2022-11-01T13:41:22.736Z,15.86
2022-11-01T13:44:25.367Z,15.70
2022-11-01T13:47:36.062Z,16.00
2022-11-01T13:50:43.819Z,15.82
2022-11-01T13:53:46.791Z,15.62
2022-11-01T13:57:07.159Z,15.32
2022-11-01T14:00:28.885Z,15.58
2022-11-01T14:03:32.416Z,15.32
2022-11-01T14:06:37.742Z,15.26
2022-11-01T14:09:49.394Z,14.69
2022-11-01T14:12:57.020Z,15.05
2022-11-01T14:15:59.839Z,15.50
2022-11-01T14:19:02.705Z,15.04
2022-11-01T14:22:11.487Z,15.17
2022-11-01T14:25:13.515Z,14.66
2022-11-01T14:28:18.461Z,15.53
2022-11-01T14:31:22.207Z,15.67
2022-11-01T14:34:25.388Z,14.58
2022-11-01T14:37:28.483Z,15.65
2022-11-01T14:40:32.785Z,14.88
2022-11-01T14:43:48.233Z,14.86
2022-11-01T14:46:50.057Z,13.85
2022-11-01T14:49:53.037Z,15.64
2022-11-01T14:53:13.349Z,15.44
2022-11-01T14:56:22.154Z,14.58
2022-11-01T14:59:28.360Z,15.26
2022-11-01T15:02:30.389Z,14.99
2022-11-01T15:05:32.335Z,14.38
2022-11-01T15:08:39.799Z,15.00
2022-11-01T15:11:41.670Z,15.55
2022-11-01T15:14:44.429Z,15.63
2022-11-01T15:17:56.585Z,14.64
2022-11-01T15:20:58.827Z,14.92
2022-11-01T15:24:02.150Z,14.52
2022-11-01T15:27:05.306Z,14.23
2022-11-01T15:30:07.677Z,14.60
2022-11-01T15:33:13.774Z,14.36
2022-11-01T15:36:19.561Z,14.78
2022-11-01T15:39:25.032Z,14.66
2022-11-01T15:42:33.888Z,14.86
2022-11-01T15:45:36.063Z,13.99
2022-11-01T15:48:37.887Z,13.97
2022-11-01T15:51:45.696Z,14.53
2022-11-01T15:54:49.434Z,14.71
2022-11-01T15:57:53.044Z,14.63
2022-11-01T16:00:56.038Z,14.90
2022-11-01T16:04:05.013Z,15.31
2022-11-01T16:07:07.432Z,15.07
2022-11-01T16:10:14.400Z,15.41
2022-11-01T16:13:16.468Z,15.36
2022-11-01T16:16:18.385Z,14.53
2022-11-01T16:19:39.525Z,13.93
2022-11-01T16:22:41.376Z,13.81
2022-11-01T16:25:43.153Z,14.35
2022-11-01T16:28:45.561Z,14.54
2022-11-01T16:31:47.372Z,14.55
2022-11-01T16:34:49.206Z,14.28
2022-11-01T16:37:51.009Z,14.59
2022-11-01T16:40:56.860Z,15.59
2022-11-01T16:43:59.700Z,14.28
2022-11-01T16:47:01.520Z,14.48
2022-11-01T16:50:03.441Z,14.47
2022-11-01T16:53:08.751Z,14.50
2022-11-01T16:59:39.158Z,15.51
2022-11-01T17:02:41.232Z,15.11
2022-11-01T17:05:43.110Z,14.60
2022-11-01T17:08:44.981Z,15.13
2022-11-01T17:11:51.084Z,15.94
2022-11-01T17:14:53.578Z,15.78
2022-11-01T17:17:56.005Z,15.28
2022-11-01T17:20:58.489Z,15.68
2022-11-01T17:24:00.304Z,15.37
2022-11-01T17:27:02.899Z,15.78
2022-11-01T17:30:05.052Z,15.92
2022-11-01T17:33:06.884Z,15.71
2022-11-01T17:36:12.345Z,15.01
2022-11-01T17:39:14.157Z,15.23
2022-11-01T17:42:15.977Z,14.94
2022-11-01T17:45:17.844Z,14.52
2022-11-01T17:48:19.671Z,14.71
2022-11-01T17:51:23.167Z,15.37
2022-11-01T17:57:28.377Z,15.33
2022-11-01T18:00:30.292Z,14.49
2022-11-01T18:03:32.104Z,14.93
2022-11-01T18:06:33.912Z,15.42
2022-11-01T18:09:35.713Z,14.49
2022-11-01T18:12:42.992Z,15.23
2022-11-01T18:15:50.390Z,15.09
2022-11-01T18:19:00.380Z,15.67
2022-11-01T18:22:20.925Z,15.88
2022-11-01T18:25:28.326Z,14.67
2022-11-01T18:28:30.732Z,15.79
2022-11-01T18:31:33.924Z,15.90
2022-11-01T18:34:38.669Z,15.79
2022-11-01T18:37:41.433Z,14.59
2022-11-01T18:40:43.209Z,15.34
2022-11-01T18:43:44.993Z,14.76
2022-11-01T18:47:07.865Z,14.75
2022-11-01T18:50:16.503Z,14.39
2022-11-01T18:53:19.053Z,13.27
2022-11-01T18:56:21.917Z,13.86
2022-11-01T18:59:29.467Z,14.44
2022-11-01T19:02:32.996Z,14.86
2022-11-01T19:05:34.849Z,14.67
2022-11-01T19:08:36.859Z,15.08
2022-11-01T19:11:38.682Z,14.55
2022-11-01T19:14:40.502Z,13.81
2022-11-01T19:17:47.958Z,14.34
2022-11-01T19:20:50.635Z,13.87
2022-11-01T19:23:54.166Z,13.41
2022-11-01T19:26:56.284Z,14.14
2022-11-01T19:29:58.245Z,13.73
2022-11-01T19:33:20.345Z,14.11
2022-11-01T19:36:25.726Z,14.01
2022-11-01T19:39:27.461Z,13.46
2022-11-01T19:42:30.185Z,13.78
2022-11-01T19:45:33.009Z,13.72
2022-11-01T19:48:34.836Z,13.78
2022-11-01T19:51:36.649Z,14.34
2022-11-01T19:54:39.217Z,14.73
2022-11-01T19:57:44.032Z,13.23
2022-11-01T20:00:47.173Z,13.62
2022-11-01T20:03:51.657Z,13.67
2022-11-01T20:07:12.385Z,13.78
2022-11-01T20:10:15.061Z,13.07
2022-11-01T20:13:17.868Z,13.03
2022-11-01T20:16:19.649Z,12.59
2022-11-01T20:19:21.844Z,13.35
2022-11-01T20:22:23.631Z,12.74
2022-11-01T20:25:29.996Z,12.88
2022-11-01T20:28:31.881Z,13.36
2022-11-01T20:31:33.699Z,13.32
2022-11-01T20:34:36.279Z,13.51
2022-11-01T20:37:38.260Z,13.53
2022-11-01T20:40:40.110Z,12.70
2022-11-01T20:43:42.022Z,13.08
2022-11-01T20:46:43.828Z,13.01
2022-11-01T20:49:45.639Z,13.72
2022-11-01T20:52:49.273Z,14.02
2022-11-01T20:55:51.133Z,13.63
2022-11-01T20:58:52.974Z,13.37
2022-11-01T21:01:55.034Z,13.82
2022-11-01T21:05:01.404Z,14.07
2022-11-01T21:08:14.890Z,13.66
2022-11-01T21:11:43.789Z,13.50
2022-11-01T21:14:46.094Z,13.43
2022-11-01T21:17:49.604Z,13.57
2022-11-01T21:20:51.421Z,13.48
2022-11-01T21:23:53.231Z,13.06
2022-11-01T21:27:05.483Z,13.41
2022-11-01T21:30:15.610Z,13.26
2022-11-01T21:33:36.555Z,13.50
2022-11-01T21:36:38.458Z,13.90
2022-11-01T21:39:40.281Z,13.60
2022-11-01T21:42:44.389Z,13.54
2022-11-01T21:45:46.326Z,12.75
2022-11-01T21:48:48.260Z,13.52
2022-11-01T21:51:50.250Z,12.72
2022-11-01T21:54:53.031Z,13.07
2022-11-01T21:57:55.171Z,12.98
2022-11-01T22:00:57.059Z,12.94
2022-11-01T22:03:58.928Z,13.23
2022-11-01T22:07:01.377Z,13.31
2022-11-01T22:10:03.266Z,12.44
2022-11-01T22:13:06.962Z,12.88
2022-11-01T22:16:09.531Z,12.18
2022-11-01T22:19:11.421Z,13.17
2022-11-01T22:22:13.215Z,12.61
2022-11-01T22:25:15.081Z,13.99
2022-11-01T22:28:16.932Z,13.31
2022-11-01T22:31:19.109Z,13.27
2022-11-01T22:34:21.320Z,12.75
2022-11-01T22:37:23.836Z,13.61
2022-11-01T22:40:25.614Z,13.63
2022-11-01T22:43:27.438Z,13.93
2022-11-01T22:46:30.396Z,14.24
2022-11-01T22:49:35.983Z,14.44
2022-11-01T22:52:39.105Z,13.31
2022-11-01T22:55:42.050Z,14.40
2022-11-01T22:58:43.879Z,13.76
2022-11-01T23:01:45.803Z,13.48
2022-11-01T23:04:47.993Z,13.32
2022-11-01T23:07:50.730Z,13.88
2022-11-01T23:10:52.510Z,13.31
2022-11-01T23:14:13.101Z,13.64
2022-11-01T23:17:25.448Z,13.65
2022-11-01T23:20:27.293Z,14.03
2022-11-01T23:23:29.088Z,14.51
2022-11-01T23:26:30.879Z,14.80
2022-11-01T23:29:32.686Z,14.96
2022-11-01T23:32:34.464Z,14.69
2022-11-01T23:35:36.645Z,14.79
2022-11-01T23:38:39.226Z,14.42
2022-11-01T23:41:48.321Z,14.68
2022-11-01T23:44:50.651Z,14.76
2022-11-01T23:47:52.558Z,14.95
2022-11-01T23:50:54.422Z,14.37
2022-11-01T23:53:56.228Z,14.23
2022-11-01T23:56:58.012Z,14.11
2022-11-01T23:59:59.813Z,13.63
